sensor_id;sensor_type;location;lat;lon;timestamp;pressure;altitude;pressure_sealevel;temperature;humidity
9750;BME280;4914;43.218;27.908;2022-08-19T00:01:21;100263.72;;;24.98;100.00
9750;BME280;4914;43.218;27.908;2022-08-19T00:03:49;100260.75;;;25.00;100.00
9750;BME280;4914;43.218;27.908;2022-08-19T00:06:16;100267.66;;;25.02;100.00
9750;BME280;4914;43.218;27.908;2022-08-19T00:08:45;100272.03;;;25.03;100.00
9750;BME280;4914;43.218;27.908;2022-08-19T00:11:12;100268.25;;;25.04;100.00
9750;BME280;4914;43.218;27.908;2022-08-19T00:13:39;100277.03;;;25.06;100.00
9750;BME280;4914;43.218;27.908;2022-08-19T00:16:06;100273.84;;;25.09;100.00
9750;BME280;4914;43.218;27.908;2022-08-19T00:18:33;100270.88;;;25.17;100.00
9750;BME280;4914;43.218;27.908;2022-08-19T00:21:01;100271.94;;;25.16;100.00
9750;BME280;4914;43.218;27.908;2022-08-19T00:23:28;100272.69;;;25.24;100.00
9750;BME280;4914;43.218;27.908;2022-08-19T00:25:57;100271.47;;;25.19;100.00
9750;BME280;4914;43.218;27.908;2022-08-19T00:28:24;100269.22;;;25.16;100.00
9750;BME280;4914;43.218;27.908;2022-08-19T00:30:50;100274.16;;;25.26;100.00
9750;BME280;4914;43.218;27.908;2022-08-19T00:33:18;100273.91;;;25.28;100.00
9750;BME280;4914;43.218;27.908;2022-08-19T00:35:45;100273.78;;;25.23;100.00
9750;BME280;4914;43.218;27.908;2022-08-19T00:38:12;100281.69;;;25.24;100.00
9750;BME280;4914;43.218;27.908;2022-08-19T00:40:42;100279.22;;;25.23;100.00
9750;BME280;4914;43.218;27.908;2022-08-19T00:43:18;100276.53;;;25.16;100.00
9750;BME280;4914;43.218;27.908;2022-08-19T00:45:45;100278.28;;;25.04;100.00
9750;BME280;4914;43.218;27.908;2022-08-19T00:48:13;100280.78;;;25.05;100.00
9750;BME280;4914;43.218;27.908;2022-08-19T00:50:41;100271.56;;;25.13;100.00
9750;BME280;4914;43.218;27.908;2022-08-19T00:53:09;100272.59;;;25.12;100.00
9750;BME280;4914;43.218;27.908;2022-08-19T00:55:38;100273.25;;;25.07;100.00
9750;BME280;4914;43.218;27.908;2022-08-19T00:58:07;100277.41;;;25.10;100.00
9750;BME280;4914;43.218;27.908;2022-08-19T01:00:36;100278.06;;;25.05;100.00
9750;BME280;4914;43.218;27.908;2022-08-19T01:03:06;100278.53;;;25.02;100.00
9750;BME280;4914;43.218;27.908;2022-08-19T01:05:35;100278.25;;;25.10;100.00
9750;BME280;4914;43.218;27.908;2022-08-19T01:08:05;100277.03;;;25.06;100.00
9750;BME280;4914;43.218;27.908;2022-08-19T01:10:36;100285.00;;;25.01;100.00
9750;BME280;4914;43.218;27.908;2022-08-19T01:13:04;100274.63;;;24.92;100.00
9750;BME280;4914;43.218;27.908;2022-08-19T01:15:35;100275.84;;;24.96;100.00
9750;BME280;4914;43.218;27.908;2022-08-19T01:18:10;100276.69;;;24.96;100.00
9750;BME280;4914;43.218;27.908;2022-08-19T01:20:39;100266.69;;;24.90;100.00
9750;BME280;4914;43.218;27.908;2022-08-19T01:23:08;100270.22;;;24.91;100.00
9750;BME280;4914;43.218;27.908;2022-08-19T01:25:48;100276.28;;;24.86;100.00
9750;BME280;4914;43.218;27.908;2022-08-19T01:28:17;100275.91;;;24.83;100.00
9750;BME280;4914;43.218;27.908;2022-08-19T01:30:45;100267.56;;;24.84;100.00
9750;BME280;4914;43.218;27.908;2022-08-19T01:33:12;100266.84;;;24.95;100.00
9750;BME280;4914;43.218;27.908;2022-08-19T01:35:40;100267.91;;;24.94;100.00
9750;BME280;4914;43.218;27.908;2022-08-19T01:38:10;100273.84;;;24.78;100.00
9750;BME280;4914;43.218;27.908;2022-08-19T01:40:39;100269.59;;;24.57;100.00
9750;BME280;4914;43.218;27.908;2022-08-19T01:43:07;100260.66;;;24.50;100.00
9750;BME280;4914;43.218;27.908;2022-08-19T01:45:35;100271.34;;;24.45;100.00
9750;BME280;4914;43.218;27.908;2022-08-19T01:48:05;100258.03;;;24.30;100.00
9750;BME280;4914;43.218;27.908;2022-08-19T01:50:33;100256.13;;;24.38;100.00
9750;BME280;4914;43.218;27.908;2022-08-19T01:53:03;100259.06;;;24.36;100.00
9750;BME280;4914;43.218;27.908;2022-08-19T01:55:32;100258.41;;;24.41;100.00
9750;BME280;4914;43.218;27.908;2022-08-19T01:58:01;100259.00;;;24.49;100.00
9750;BME280;4914;43.218;27.908;2022-08-19T02:00:30;100263.31;;;24.57;100.00
9750;BME280;4914;43.218;27.908;2022-08-19T02:02:57;100260.41;;;24.52;100.00
9750;BME280;4914;43.218;27.908;2022-08-19T02:05:26;100249.00;;;24.37;100.00
9750;BME280;4914;43.218;27.908;2022-08-19T02:07:54;100251.97;;;24.35;100.00
9750;BME280;4914;43.218;27.908;2022-08-19T02:10:22;100250.94;;;24.29;100.00
9750;BME280;4914;43.218;27.908;2022-08-19T02:12:51;100244.88;;;24.27;100.00
9750;BME280;4914;43.218;27.908;2022-08-19T02:15:18;100238.41;;;24.28;100.00
9750;BME280;4914;43.218;27.908;2022-08-19T02:17:46;100241.06;;;24.42;100.00
9750;BME280;4914;43.218;27.908;2022-08-19T02:20:14;100235.69;;;24.35;100.00
9750;BME280;4914;43.218;27.908;2022-08-19T02:22:42;100234.03;;;24.27;100.00
9750;BME280;4914;43.218;27.908;2022-08-19T02:25:10;100232.56;;;24.31;100.00
9750;BME280;4914;43.218;27.908;2022-08-19T02:27:37;100234.88;;;24.28;100.00
9750;BME280;4914;43.218;27.908;2022-08-19T02:30:09;100237.38;;;24.29;100.00
9750;BME280;4914;43.218;27.908;2022-08-19T02:32:36;100237.75;;;24.40;100.00
9750;BME280;4914;43.218;27.908;2022-08-19T02:35:04;100237.13;;;24.38;100.00
9750;BME280;4914;43.218;27.908;2022-08-19T02:37:31;100242.41;;;24.26;100.00
9750;BME280;4914;43.218;27.908;2022-08-19T02:40:15;100230.31;;;24.15;100.00
9750;BME280;4914;43.218;27.908;2022-08-19T02:42:43;100234.09;;;24.08;100.00
9750;BME280;4914;43.218;27.908;2022-08-19T02:45:12;100234.13;;;24.01;100.00
9750;BME280;4914;43.218;27.908;2022-08-19T02:47:40;100241.25;;;23.96;100.00
9750;BME280;4914;43.218;27.908;2022-08-19T02:50:07;100243.38;;;23.87;100.00
9750;BME280;4914;43.218;27.908;2022-08-19T02:52:35;100232.13;;;23.77;100.00
9750;BME280;4914;43.218;27.908;2022-08-19T02:55:02;100239.44;;;23.70;100.00
9750;BME280;4914;43.218;27.908;2022-08-19T02:57:30;100235.09;;;23.56;100.00
9750;BME280;4914;43.218;27.908;2022-08-19T02:59:58;100246.56;;;23.51;100.00
9750;BME280;4914;43.218;27.908;2022-08-19T03:02:27;100250.94;;;23.45;100.00
9750;BME280;4914;43.218;27.908;2022-08-19T03:04:54;100241.97;;;23.38;100.00
9750;BME280;4914;43.218;27.908;2022-08-19T03:07:21;100249.69;;;23.41;100.00
9750;BME280;4914;43.218;27.908;2022-08-19T03:09:48;100251.78;;;23.39;100.00
9750;BME280;4914;43.218;27.908;2022-08-19T03:12:14;100257.41;;;23.38;100.00
9750;BME280;4914;43.218;27.908;2022-08-19T03:14:41;100260.94;;;23.38;100.00
9750;BME280;4914;43.218;27.908;2022-08-19T03:17:08;100262.00;;;23.37;100.00
9750;BME280;4914;43.218;27.908;2022-08-19T03:19:37;100268.03;;;23.33;100.00
9750;BME280;4914;43.218;27.908;2022-08-19T03:22:04;100260.09;;;23.31;100.00
9750;BME280;4914;43.218;27.908;2022-08-19T03:24:31;100261.38;;;23.29;100.00
9750;BME280;4914;43.218;27.908;2022-08-19T03:26:58;100257.22;;;23.20;100.00
9750;BME280;4914;43.218;27.908;2022-08-19T03:29:26;100271.59;;;23.20;100.00
9750;BME280;4914;43.218;27.908;2022-08-19T03:31:54;100271.38;;;23.09;100.00
9750;BME280;4914;43.218;27.908;2022-08-19T03:34:23;100273.66;;;23.05;100.00
9750;BME280;4914;43.218;27.908;2022-08-19T03:36:53;100274.28;;;23.07;100.00
9750;BME280;4914;43.218;27.908;2022-08-19T03:39:21;100284.09;;;23.01;100.00
9750;BME280;4914;43.218;27.908;2022-08-19T03:41:49;100283.88;;;23.03;100.00
9750;BME280;4914;43.218;27.908;2022-08-19T03:44:18;100284.31;;;23.07;100.00
9750;BME280;4914;43.218;27.908;2022-08-19T03:46:48;100292.41;;;23.13;100.00
9750;BME280;4914;43.218;27.908;2022-08-19T03:49:15;100286.81;;;23.21;100.00
9750;BME280;4914;43.218;27.908;2022-08-19T03:51:43;100299.13;;;23.30;100.00
9750;BME280;4914;43.218;27.908;2022-08-19T03:54:13;100295.78;;;23.35;100.00
9750;BME280;4914;43.218;27.908;2022-08-19T03:56:41;100303.28;;;23.39;100.00
9750;BME280;4914;43.218;27.908;2022-08-19T03:59:13;100298.50;;;23.48;100.00
9750;BME280;4914;43.218;27.908;2022-08-19T04:01:40;100308.50;;;23.61;100.00
9750;BME280;4914;43.218;27.908;2022-08-19T04:04:07;100299.09;;;23.70;100.00
9750;BME280;4914;43.218;27.908;2022-08-19T04:06:37;100304.31;;;23.78;100.00
9750;BME280;4914;43.218;27.908;2022-08-19T04:09:07;100304.50;;;23.83;100.00
9750;BME280;4914;43.218;27.908;2022-08-19T04:11:39;100309.28;;;23.81;100.00
9750;BME280;4914;43.218;27.908;2022-08-19T04:14:07;100306.19;;;23.77;100.00
9750;BME280;4914;43.218;27.908;2022-08-19T04:16:34;100303.06;;;23.74;100.00
9750;BME280;4914;43.218;27.908;2022-08-19T04:19:03;100312.88;;;23.68;100.00
9750;BME280;4914;43.218;27.908;2022-08-19T04:21:30;100308.28;;;23.69;100.00
9750;BME280;4914;43.218;27.908;2022-08-19T04:23:57;100308.50;;;23.74;100.00
9750;BME280;4914;43.218;27.908;2022-08-19T04:26:26;100312.84;;;23.81;100.00
9750;BME280;4914;43.218;27.908;2022-08-19T04:28:55;100323.50;;;23.83;100.00
9750;BME280;4914;43.218;27.908;2022-08-19T04:31:24;100320.97;;;23.81;100.00
9750;BME280;4914;43.218;27.908;2022-08-19T04:33:52;100319.31;;;23.87;100.00
9750;BME280;4914;43.218;27.908;2022-08-19T04:36:22;100329.28;;;24.00;100.00
9750;BME280;4914;43.218;27.908;2022-08-19T04:38:53;100327.22;;;24.02;100.00
9750;BME280;4914;43.218;27.908;2022-08-19T04:41:21;100326.75;;;24.18;100.00
9750;BME280;4914;43.218;27.908;2022-08-19T04:44:07;100340.94;;;24.26;100.00
9750;BME280;4914;43.218;27.908;2022-08-19T04:46:34;100325.06;;;24.23;100.00
9750;BME280;4914;43.218;27.908;2022-08-19T04:49:03;100332.16;;;24.24;100.00
9750;BME280;4914;43.218;27.908;2022-08-19T04:51:31;100331.13;;;24.25;100.00
9750;BME280;4914;43.218;27.908;2022-08-19T04:53:59;100321.50;;;24.29;100.00
9750;BME280;4914;43.218;27.908;2022-08-19T04:56:27;100329.41;;;24.38;100.00
9750;BME280;4914;43.218;27.908;2022-08-19T04:58:56;100329.19;;;24.46;100.00
9750;BME280;4914;43.218;27.908;2022-08-19T05:01:26;100331.25;;;24.50;100.00
9750;BME280;4914;43.218;27.908;2022-08-19T05:03:55;100335.66;;;24.45;100.00
9750;BME280;4914;43.218;27.908;2022-08-19T05:06:23;100340.84;;;24.53;100.00
9750;BME280;4914;43.218;27.908;2022-08-19T05:08:51;100333.06;;;24.63;100.00
9750;BME280;4914;43.218;27.908;2022-08-19T05:11:19;100331.97;;;24.70;100.00
9750;BME280;4914;43.218;27.908;2022-08-19T05:13:47;100333.16;;;24.81;100.00
9750;BME280;4914;43.218;27.908;2022-08-19T05:16:16;100328.50;;;24.95;100.00
9750;BME280;4914;43.218;27.908;2022-08-19T05:18:45;100338.03;;;25.10;100.00
9750;BME280;4914;43.218;27.908;2022-08-19T05:21:30;100332.06;;;25.27;100.00
9750;BME280;4914;43.218;27.908;2022-08-19T05:24:15;100334.47;;;25.41;100.00
9750;BME280;4914;43.218;27.908;2022-08-19T05:26:45;100339.81;;;25.54;100.00
9750;BME280;4914;43.218;27.908;2022-08-19T05:29:14;100331.84;;;25.78;100.00
9750;BME280;4914;43.218;27.908;2022-08-19T05:31:42;100324.06;;;25.81;100.00
9750;BME280;4914;43.218;27.908;2022-08-19T05:34:11;100324.84;;;25.88;100.00
9750;BME280;4914;43.218;27.908;2022-08-19T05:36:41;100330.22;;;25.95;100.00
9750;BME280;4914;43.218;27.908;2022-08-19T05:39:11;100329.25;;;26.08;100.00
9750;BME280;4914;43.218;27.908;2022-08-19T05:41:41;100318.66;;;26.18;100.00
9750;BME280;4914;43.218;27.908;2022-08-19T05:44:08;100317.78;;;26.24;100.00
9750;BME280;4914;43.218;27.908;2022-08-19T05:46:35;100311.72;;;26.40;100.00
9750;BME280;4914;43.218;27.908;2022-08-19T05:49:03;100319.13;;;26.51;100.00
9750;BME280;4914;43.218;27.908;2022-08-19T05:51:33;100314.88;;;26.55;100.00
9750;BME280;4914;43.218;27.908;2022-08-19T05:54:01;100303.34;;;26.71;100.00
9750;BME280;4914;43.218;27.908;2022-08-19T05:56:28;100300.72;;;26.76;100.00
9750;BME280;4914;43.218;27.908;2022-08-19T05:58:56;100297.25;;;26.87;100.00
9750;BME280;4914;43.218;27.908;2022-08-19T06:01:25;100311.28;;;27.03;100.00
9750;BME280;4914;43.218;27.908;2022-08-19T06:03:53;100308.69;;;27.08;100.00
9750;BME280;4914;43.218;27.908;2022-08-19T06:06:20;100303.97;;;27.15;100.00
9750;BME280;4914;43.218;27.908;2022-08-19T06:08:49;100307.06;;;27.18;100.00
9750;BME280;4914;43.218;27.908;2022-08-19T06:11:20;100302.22;;;27.32;100.00
9750;BME280;4914;43.218;27.908;2022-08-19T06:13:49;100310.66;;;27.42;100.00
9750;BME280;4914;43.218;27.908;2022-08-19T06:16:18;100292.97;;;27.45;100.00
9750;BME280;4914;43.218;27.908;2022-08-19T06:18:49;100301.66;;;27.53;100.00
9750;BME280;4914;43.218;27.908;2022-08-19T06:21:18;100301.78;;;27.58;100.00
9750;BME280;4914;43.218;27.908;2022-08-19T06:23:46;100301.94;;;27.52;100.00
9750;BME280;4914;43.218;27.908;2022-08-19T06:26:15;100297.28;;;27.64;100.00
9750;BME280;4914;43.218;27.908;2022-08-19T06:28:42;100293.84;;;27.80;100.00
9750;BME280;4914;43.218;27.908;2022-08-19T06:31:12;100296.34;;;27.82;100.00
9750;BME280;4914;43.218;27.908;2022-08-19T06:33:39;100293.81;;;27.92;100.00
9750;BME280;4914;43.218;27.908;2022-08-19T06:36:07;100299.16;;;28.10;100.00
9750;BME280;4914;43.218;27.908;2022-08-19T06:38:34;100296.53;;;28.27;100.00
9750;BME280;4914;43.218;27.908;2022-08-19T06:41:02;100294.34;;;28.40;99.84
9750;BME280;4914;43.218;27.908;2022-08-19T06:43:31;100299.69;;;28.35;98.35
9750;BME280;4914;43.218;27.908;2022-08-19T06:45:58;100305.25;;;28.40;98.40
9750;BME280;4914;43.218;27.908;2022-08-19T06:48:26;100309.31;;;28.38;98.56
9750;BME280;4914;43.218;27.908;2022-08-19T06:50:53;100305.75;;;28.49;97.04
9750;BME280;4914;43.218;27.908;2022-08-19T06:53:20;100299.28;;;28.55;96.92
9750;BME280;4914;43.218;27.908;2022-08-19T06:55:47;100299.03;;;28.56;96.17
9750;BME280;4914;43.218;27.908;2022-08-19T06:58:14;100301.03;;;28.61;95.46
9750;BME280;4914;43.218;27.908;2022-08-19T07:00:42;100300.53;;;28.76;94.75
9750;BME280;4914;43.218;27.908;2022-08-19T07:03:09;100300.41;;;28.99;92.78
9750;BME280;4914;43.218;27.908;2022-08-19T07:05:40;100297.94;;;29.14;91.46
9750;BME280;4914;43.218;27.908;2022-08-19T07:08:07;100297.63;;;29.11;90.56
9750;BME280;4914;43.218;27.908;2022-08-19T07:10:34;100301.09;;;29.23;90.39
9750;BME280;4914;43.218;27.908;2022-08-19T07:13:02;100303.38;;;29.42;88.83
9750;BME280;4914;43.218;27.908;2022-08-19T07:15:29;100300.13;;;29.45;87.68
9750;BME280;4914;43.218;27.908;2022-08-19T07:17:57;100290.50;;;29.60;86.67
9750;BME280;4914;43.218;27.908;2022-08-19T07:20:24;100302.47;;;29.54;86.14
9750;BME280;4914;43.218;27.908;2022-08-19T07:22:51;100289.25;;;29.51;85.25
9750;BME280;4914;43.218;27.908;2022-08-19T07:25:18;100293.00;;;29.61;84.47
9750;BME280;4914;43.218;27.908;2022-08-19T07:27:48;100284.38;;;29.53;84.50
9750;BME280;4914;43.218;27.908;2022-08-19T07:30:16;100297.06;;;29.59;84.25
9750;BME280;4914;43.218;27.908;2022-08-19T07:32:43;100292.72;;;29.96;82.47
9750;BME280;4914;43.218;27.908;2022-08-19T07:35:11;100288.28;;;30.12;81.09
9750;BME280;4914;43.218;27.908;2022-08-19T07:37:38;100285.50;;;30.33;79.46
9750;BME280;4914;43.218;27.908;2022-08-19T07:40:10;100284.66;;;30.50;78.39
9750;BME280;4914;43.218;27.908;2022-08-19T07:42:37;100287.53;;;30.65;77.32
9750;BME280;4914;43.218;27.908;2022-08-19T07:45:06;100281.53;;;30.95;74.39
9750;BME280;4914;43.218;27.908;2022-08-19T07:47:33;100281.34;;;31.01;72.94
9750;BME280;4914;43.218;27.908;2022-08-19T07:50:00;100282.38;;;31.22;71.87
9750;BME280;4914;43.218;27.908;2022-08-19T07:52:31;100291.94;;;31.20;71.71
9750;BME280;4914;43.218;27.908;2022-08-19T07:54:58;100286.09;;;31.43;69.24
9750;BME280;4914;43.218;27.908;2022-08-19T07:57:28;100283.31;;;31.38;69.27
9750;BME280;4914;43.218;27.908;2022-08-19T07:59:55;100287.13;;;31.37;66.52
9750;BME280;4914;43.218;27.908;2022-08-19T08:02:22;100274.56;;;31.41;66.97
9750;BME280;4914;43.218;27.908;2022-08-19T08:04:49;100280.81;;;31.68;65.72
9750;BME280;4914;43.218;27.908;2022-08-19T08:07:35;100279.81;;;31.84;63.23
9750;BME280;4914;43.218;27.908;2022-08-19T08:10:19;100272.44;;;31.95;62.35
9750;BME280;4914;43.218;27.908;2022-08-19T08:12:46;100269.97;;;31.93;60.58
9750;BME280;4914;43.218;27.908;2022-08-19T08:15:15;100261.22;;;32.01;58.84
9750;BME280;4914;43.218;27.908;2022-08-19T08:17:44;100268.47;;;32.18;58.20
9750;BME280;4914;43.218;27.908;2022-08-19T08:20:13;100261.91;;;32.34;58.23
9750;BME280;4914;43.218;27.908;2022-08-19T08:22:44;100275.94;;;32.42;57.53
9750;BME280;4914;43.218;27.908;2022-08-19T08:25:28;100273.22;;;32.53;57.54
9750;BME280;4914;43.218;27.908;2022-08-19T08:27:56;100269.63;;;32.47;56.65
9750;BME280;4914;43.218;27.908;2022-08-19T08:30:26;100263.13;;;32.68;56.16
9750;BME280;4914;43.218;27.908;2022-08-19T08:32:54;100256.84;;;32.88;53.94
9750;BME280;4914;43.218;27.908;2022-08-19T08:35:22;100256.28;;;32.96;52.99
9750;BME280;4914;43.218;27.908;2022-08-19T08:37:53;100270.34;;;33.25;52.30
9750;BME280;4914;43.218;27.908;2022-08-19T08:40:23;100260.44;;;33.44;52.18
9750;BME280;4914;43.218;27.908;2022-08-19T08:45:45;100262.59;;;33.62;51.37
9750;BME280;4914;43.218;27.908;2022-08-19T08:48:20;100261.75;;;33.77;50.05
9750;BME280;4914;43.218;27.908;2022-08-19T08:50:50;100254.78;;;34.10;49.71
9750;BME280;4914;43.218;27.908;2022-08-19T08:53:20;100258.31;;;34.26;49.70
9750;BME280;4914;43.218;27.908;2022-08-19T08:55:48;100248.28;;;34.40;48.42
9750;BME280;4914;43.218;27.908;2022-08-19T08:58:20;100257.28;;;34.61;48.21
9750;BME280;4914;43.218;27.908;2022-08-19T09:00:50;100253.25;;;35.26;45.71
9750;BME280;4914;43.218;27.908;2022-08-19T09:03:20;100256.97;;;35.06;45.60
9750;BME280;4914;43.218;27.908;2022-08-19T09:05:56;100247.47;;;35.51;44.14
9750;BME280;4914;43.218;27.908;2022-08-19T09:08:35;100246.50;;;36.75;42.00
9750;BME280;4914;43.218;27.908;2022-08-19T09:11:08;100257.31;;;37.73;40.17
9750;BME280;4914;43.218;27.908;2022-08-19T09:13:42;100250.97;;;38.14;38.25
9750;BME280;4914;43.218;27.908;2022-08-19T09:16:16;100248.84;;;39.18;37.32
9750;BME280;4914;43.218;27.908;2022-08-19T09:18:45;100249.31;;;39.74;36.73
9750;BME280;4914;43.218;27.908;2022-08-19T09:21:13;100253.22;;;40.03;35.33
9750;BME280;4914;43.218;27.908;2022-08-19T09:23:42;100249.78;;;40.15;34.89
9750;BME280;4914;43.218;27.908;2022-08-19T09:26:10;100258.44;;;39.65;35.60
9750;BME280;4914;43.218;27.908;2022-08-19T09:28:39;100256.75;;;39.87;35.39
9750;BME280;4914;43.218;27.908;2022-08-19T09:31:09;100248.56;;;40.56;34.81
9750;BME280;4914;43.218;27.908;2022-08-19T09:33:36;100255.66;;;41.05;33.44
9750;BME280;4914;43.218;27.908;2022-08-19T09:36:05;100260.03;;;41.49;33.18
9750;BME280;4914;43.218;27.908;2022-08-19T09:38:33;100265.53;;;41.66;32.70
9750;BME280;4914;43.218;27.908;2022-08-19T09:41:06;100258.66;;;41.55;32.22
9750;BME280;4914;43.218;27.908;2022-08-19T09:43:34;100266.63;;;41.82;32.07
9750;BME280;4914;43.218;27.908;2022-08-19T09:46:03;100261.41;;;42.10;31.27
9750;BME280;4914;43.218;27.908;2022-08-19T09:48:31;100260.34;;;41.94;31.25
9750;BME280;4914;43.218;27.908;2022-08-19T09:51:03;100259.06;;;42.12;31.04
9750;BME280;4914;43.218;27.908;2022-08-19T09:53:30;100257.25;;;41.78;31.25
9750;BME280;4914;43.218;27.908;2022-08-19T09:55:57;100259.44;;;41.72;31.50
9750;BME280;4914;43.218;27.908;2022-08-19T09:58:25;100257.72;;;42.27;31.08
9750;BME280;4914;43.218;27.908;2022-08-19T10:00:53;100248.28;;;41.72;31.94
9750;BME280;4914;43.218;27.908;2022-08-19T10:03:20;100252.53;;;40.63;32.75
9750;BME280;4914;43.218;27.908;2022-08-19T10:05:47;100251.00;;;39.83;33.16
9750;BME280;4914;43.218;27.908;2022-08-19T10:08:13;100252.97;;;40.31;33.63
9750;BME280;4914;43.218;27.908;2022-08-19T10:10:41;100251.34;;;41.33;32.53
9750;BME280;4914;43.218;27.908;2022-08-19T10:13:09;100246.72;;;41.92;31.76
9750;BME280;4914;43.218;27.908;2022-08-19T10:15:38;100250.56;;;40.89;32.52
9750;BME280;4914;43.218;27.908;2022-08-19T10:18:06;100256.94;;;39.90;33.31
9750;BME280;4914;43.218;27.908;2022-08-19T10:20:33;100259.81;;;40.25;32.99
9750;BME280;4914;43.218;27.908;2022-08-19T10:23:01;100253.03;;;40.91;32.56
9750;BME280;4914;43.218;27.908;2022-08-19T10:25:28;100252.41;;;41.66;31.61
9750;BME280;4914;43.218;27.908;2022-08-19T10:27:55;100246.88;;;41.41;31.24
9750;BME280;4914;43.218;27.908;2022-08-19T10:30:22;100250.88;;;41.22;31.09
9750;BME280;4914;43.218;27.908;2022-08-19T10:32:50;100254.63;;;41.90;30.47
9750;BME280;4914;43.218;27.908;2022-08-19T10:35:17;100248.09;;;41.86;29.18
9750;BME280;4914;43.218;27.908;2022-08-19T10:37:44;100251.47;;;42.30;28.95
9750;BME280;4914;43.218;27.908;2022-08-19T10:40:11;100251.81;;;42.49;29.38
9750;BME280;4914;43.218;27.908;2022-08-19T10:42:38;100249.66;;;42.75;29.01
9750;BME280;4914;43.218;27.908;2022-08-19T10:45:06;100260.41;;;42.14;28.81
9750;BME280;4914;43.218;27.908;2022-08-19T10:47:35;100258.81;;;42.55;28.83
9750;BME280;4914;43.218;27.908;2022-08-19T10:50:04;100256.25;;;42.91;28.60
9750;BME280;4914;43.218;27.908;2022-08-19T10:52:50;100255.22;;;42.96;29.05
9750;BME280;4914;43.218;27.908;2022-08-19T10:55:20;100266.84;;;42.36;29.06
9750;BME280;4914;43.218;27.908;2022-08-19T10:58:10;100260.19;;;41.90;29.32
9750;BME280;4914;43.218;27.908;2022-08-19T11:00:37;100262.84;;;41.87;28.46
9750;BME280;4914;43.218;27.908;2022-08-19T11:03:04;100270.56;;;42.90;27.61
9750;BME280;4914;43.218;27.908;2022-08-19T11:05:32;100278.94;;;43.11;29.50
9750;BME280;4914;43.218;27.908;2022-08-19T11:07:59;100279.59;;;42.66;34.03
9750;BME280;4914;43.218;27.908;2022-08-19T11:10:26;100281.28;;;42.38;35.14
9750;BME280;4914;43.218;27.908;2022-08-19T11:12:56;100260.91;;;41.15;37.91
9750;BME280;4914;43.218;27.908;2022-08-19T11:15:22;100270.84;;;40.56;40.37
9750;BME280;4914;43.218;27.908;2022-08-19T11:17:51;100264.09;;;40.22;41.30
9750;BME280;4914;43.218;27.908;2022-08-19T11:20:19;100264.78;;;39.97;41.57
9750;BME280;4914;43.218;27.908;2022-08-19T11:22:48;100271.03;;;38.74;45.08
9750;BME280;4914;43.218;27.908;2022-08-19T11:25:15;100280.72;;;36.41;53.56
9750;BME280;4914;43.218;27.908;2022-08-19T11:27:42;100277.41;;;35.10;68.44
9750;BME280;4914;43.218;27.908;2022-08-19T11:30:12;100264.75;;;35.67;68.99
9750;BME280;4914;43.218;27.908;2022-08-19T11:32:40;100266.81;;;37.07;59.69
9750;BME280;4914;43.218;27.908;2022-08-19T11:35:08;100262.81;;;37.46;55.17
9750;BME280;4914;43.218;27.908;2022-08-19T11:37:36;100260.13;;;37.41;49.53
9750;BME280;4914;43.218;27.908;2022-08-19T11:40:06;100265.38;;;35.88;52.50
9750;BME280;4914;43.218;27.908;2022-08-19T11:42:33;100279.59;;;34.10;62.95
9750;BME280;4914;43.218;27.908;2022-08-19T11:45:17;100270.69;;;34.33;62.42
9750;BME280;4914;43.218;27.908;2022-08-19T11:47:44;100263.22;;;35.79;56.69
9750;BME280;4914;43.218;27.908;2022-08-19T11:50:12;100264.25;;;36.92;53.24
9750;BME280;4914;43.218;27.908;2022-08-19T11:52:39;100265.16;;;37.52;49.77
9750;BME280;4914;43.218;27.908;2022-08-19T11:55:09;100279.13;;;36.40;53.94
9750;BME280;4914;43.218;27.908;2022-08-19T11:57:36;100263.59;;;36.20;56.88
9750;BME280;4914;43.218;27.908;2022-08-19T12:00:04;100264.34;;;35.50;58.14
9750;BME280;4914;43.218;27.908;2022-08-19T12:02:31;100253.28;;;34.38;65.69
9750;BME280;4914;43.218;27.908;2022-08-19T12:04:58;100269.44;;;34.54;66.51
9750;BME280;4914;43.218;27.908;2022-08-19T12:07:27;100259.16;;;34.21;69.35
9750;BME280;4914;43.218;27.908;2022-08-19T12:09:54;100260.88;;;33.92;70.55
9750;BME280;4914;43.218;27.908;2022-08-19T12:12:23;100264.84;;;33.40;74.32
9750;BME280;4914;43.218;27.908;2022-08-19T12:14:50;100259.31;;;33.15;78.56
9750;BME280;4914;43.218;27.908;2022-08-19T12:17:22;100259.91;;;33.32;80.16
9750;BME280;4914;43.218;27.908;2022-08-19T12:19:49;100263.19;;;33.44;79.39
9750;BME280;4914;43.218;27.908;2022-08-19T12:22:16;100259.31;;;33.05;81.69
9750;BME280;4914;43.218;27.908;2022-08-19T12:24:43;100258.22;;;32.80;83.96
9750;BME280;4914;43.218;27.908;2022-08-19T12:27:10;100267.28;;;32.81;86.67
9750;BME280;4914;43.218;27.908;2022-08-19T12:29:38;100266.66;;;32.59;90.53
9750;BME280;4914;43.218;27.908;2022-08-19T12:32:05;100259.75;;;32.46;91.66
9750;BME280;4914;43.218;27.908;2022-08-19T12:34:33;100263.88;;;32.49;93.66
9750;BME280;4914;43.218;27.908;2022-08-19T12:37:03;100263.53;;;32.25;92.83
9750;BME280;4914;43.218;27.908;2022-08-19T12:39:34;100261.94;;;32.44;93.91
9750;BME280;4914;43.218;27.908;2022-08-19T12:42:01;100266.78;;;32.12;94.23
9750;BME280;4914;43.218;27.908;2022-08-19T12:44:28;100264.13;;;32.37;92.41
9750;BME280;4914;43.218;27.908;2022-08-19T12:46:57;100262.50;;;32.46;90.57
9750;BME280;4914;43.218;27.908;2022-08-19T12:49:24;100256.47;;;32.49;90.36
9750;BME280;4914;43.218;27.908;2022-08-19T12:51:53;100255.16;;;31.99;93.16
9750;BME280;4914;43.218;27.908;2022-08-19T12:54:20;100252.81;;;32.28;93.61
9750;BME280;4914;43.218;27.908;2022-08-19T12:56:47;100265.50;;;32.39;88.42
9750;BME280;4914;43.218;27.908;2022-08-19T12:59:14;100267.81;;;32.06;90.82
9750;BME280;4914;43.218;27.908;2022-08-19T13:01:43;100267.78;;;32.00;88.75
9750;BME280;4914;43.218;27.908;2022-08-19T13:04:11;100273.53;;;31.89;92.16
9750;BME280;4914;43.218;27.908;2022-08-19T13:06:38;100271.13;;;32.02;92.00